createdAt,value
2022-10-17T00:00:41.459Z,99521.03
2022-10-17T00:03:08.701Z,99516.78
2022-10-17T00:05:40.025Z,99511.41
2022-10-17T00:08:06.684Z,99523.59
2022-10-17T00:10:33.287Z,99530.28
2022-10-17T00:12:59.906Z,99525.00
2022-10-17T00:15:26.627Z,99534.31
2022-10-17T00:17:53.383Z,99535.06
2022-10-17T00:20:20.003Z,99537.75
2022-10-17T00:22:46.647Z,99536.47
2022-10-17T00:25:13.377Z,99535.88
2022-10-17T00:27:41.359Z,99540.50
2022-10-17T00:30:12.810Z,99543.16
2022-10-17T00:32:40.210Z,99547.94
2022-10-17T00:35:08.218Z,99547.84
2022-10-17T00:37:35.648Z,99547.94
2022-10-17T00:40:02.437Z,99552.00
2022-10-17T00:42:29.161Z,99548.69
2022-10-17T00:45:21.206Z,99550.69
2022-10-17T00:48:16.593Z,99547.19
2022-10-17T00:50:48.891Z,99551.38
2022-10-17T00:53:16.767Z,99545.19
2022-10-17T00:55:51.727Z,99546.78
2022-10-17T00:58:20.640Z,99548.44
2022-10-17T01:00:48.430Z,99548.53
2022-10-17T01:03:16.100Z,99545.94
2022-10-17T01:05:42.937Z,99549.59
2022-10-17T01:08:10.872Z,99550.53
2022-10-17T01:11:09.598Z,99548.00
2022-10-17T01:13:44.409Z,99549.22
2022-10-17T01:16:32.188Z,99540.22
2022-10-17T01:19:10.596Z,99541.06
2022-10-17T01:22:00.280Z,99544.84
2022-10-17T01:24:58.275Z,99538.09
2022-10-17T01:27:34.868Z,99540.75
2022-10-17T01:30:23.593Z,99538.34
2022-10-17T01:32:57.499Z,99526.50
2022-10-17T01:35:25.386Z,99533.19
2022-10-17T01:38:13.114Z,99528.00
2022-10-17T01:41:12.769Z,99524.75
2022-10-17T01:43:44.396Z,99516.59
2022-10-17T01:46:26.963Z,99524.34
2022-10-17T01:48:56.080Z,99526.94
2022-10-17T01:51:31.655Z,99526.84
2022-10-17T01:54:07.775Z,99523.78
2022-10-17T01:56:36.933Z,99523.44
2022-10-17T01:59:25.458Z,99528.09
2022-10-17T02:01:55.600Z,99525.78
2022-10-17T02:04:23.690Z,99522.13
2022-10-17T02:06:50.292Z,99521.28
2022-10-17T02:09:25.568Z,99524.13
2022-10-17T02:12:21.451Z,99522.47
2022-10-17T02:14:59.539Z,99522.78
2022-10-17T02:17:41.483Z,99521.13
2022-10-17T02:20:23.710Z,99513.53
2022-10-17T02:23:03.048Z,99525.72
2022-10-17T02:25:39.106Z,99512.72
2022-10-17T02:28:27.846Z,99521.97
2022-10-17T02:31:03.606Z,99518.28
2022-10-17T02:33:48.607Z,99508.47
2022-10-17T02:36:22.567Z,99518.97
2022-10-17T02:38:50.777Z,99521.66
2022-10-17T02:41:19.593Z,99531.81
2022-10-17T02:43:49.083Z,99536.25
2022-10-17T02:46:21.889Z,99544.00
2022-10-17T02:48:55.114Z,99543.16
2022-10-17T02:51:28.857Z,99538.84
2022-10-17T02:54:15.663Z,99535.16
2022-10-17T02:57:01.567Z,99537.88
2022-10-17T02:59:31.791Z,99542.91
2022-10-17T03:01:58.755Z,99541.97
2022-10-17T03:04:25.373Z,99546.41
2022-10-17T03:06:52.042Z,99550.72
2022-10-17T03:09:18.618Z,99549.25
2022-10-17T03:11:45.317Z,99557.06
2022-10-17T03:14:11.964Z,99549.50
2022-10-17T03:16:39.729Z,99561.69
2022-10-17T03:19:08.900Z,99557.41
2022-10-17T03:21:38.959Z,99561.69
2022-10-17T03:24:07.192Z,99558.09
2022-10-17T03:26:33.894Z,99559.81
2022-10-17T03:29:00.852Z,99571.25
2022-10-17T03:31:29.411Z,99564.53
2022-10-17T03:33:56.971Z,99569.44
2022-10-17T03:36:23.550Z,99575.69
2022-10-17T03:38:54.543Z,99572.31
2022-10-17T03:41:22.113Z,99567.41
2022-10-17T03:43:48.734Z,99570.25
2022-10-17T03:46:15.527Z,99576.59
2022-10-17T03:48:44.150Z,99582.66
2022-10-17T03:51:10.774Z,99576.25
2022-10-17T03:53:45.420Z,99571.59
2022-10-17T03:56:23.279Z,99576.66
2022-10-17T03:59:00.806Z,99580.16
2022-10-17T04:01:29.378Z,99578.66
2022-10-17T04:03:56.702Z,99581.25
2022-10-17T04:06:26.489Z,99581.66
2022-10-17T04:08:53.865Z,99582.41
2022-10-17T04:11:27.845Z,99585.97
2022-10-17T04:14:01.708Z,99584.53
2022-10-17T04:16:32.991Z,99583.81
2022-10-17T04:19:03.055Z,99592.16
2022-10-17T04:21:36.060Z,99603.47
2022-10-17T04:24:06.746Z,99597.47
2022-10-17T04:26:43.949Z,99600.22
2022-10-17T04:29:11.504Z,99597.91
2022-10-17T04:31:39.517Z,99607.56
2022-10-17T04:34:29.123Z,99604.97
2022-10-17T04:36:55.824Z,99612.56
2022-10-17T04:39:22.554Z,99606.75
2022-10-17T04:41:49.585Z,99607.72
2022-10-17T04:44:16.192Z,99610.22
2022-10-17T04:46:49.110Z,99609.13
2022-10-17T04:49:15.833Z,99620.88
2022-10-17T04:51:44.477Z,99625.34
2022-10-17T04:54:34.215Z,99615.78
2022-10-17T04:57:06.930Z,99615.97
2022-10-17T04:59:33.851Z,99617.84
2022-10-17T05:02:15.252Z,99616.25
2022-10-17T05:04:42.009Z,99617.75
2022-10-17T05:07:10.402Z,99632.44
2022-10-17T05:09:42.857Z,99629.84
2022-10-17T05:12:10.526Z,99638.34
2022-10-17T05:14:40.326Z,99632.34
2022-10-17T05:17:07.035Z,99641.09
2022-10-17T05:19:34.901Z,99636.97
2022-10-17T05:22:01.657Z,99638.91
2022-10-17T05:24:28.899Z,99639.56
2022-10-17T05:26:55.526Z,99650.66
2022-10-17T05:29:22.384Z,99646.41
2022-10-17T05:31:54.811Z,99645.34
2022-10-17T05:34:21.485Z,99647.84
2022-10-17T05:36:48.086Z,99644.50
2022-10-17T05:39:19.774Z,99638.59
2022-10-17T05:41:48.328Z,99642.06
2022-10-17T05:44:15.079Z,99645.78
2022-10-17T05:46:45.359Z,99647.31
2022-10-17T05:49:19.668Z,99651.88
2022-10-17T05:51:59.206Z,99652.88
2022-10-17T05:54:26.088Z,99654.75
2022-10-17T05:56:54.342Z,99651.63
2022-10-17T05:59:27.915Z,99653.31
2022-10-17T06:02:02.891Z,99660.91
2022-10-17T06:04:30.297Z,99662.72
2022-10-17T06:06:57.025Z,99659.31
2022-10-17T06:09:24.210Z,99659.09
2022-10-17T06:11:53.494Z,99672.91
2022-10-17T06:14:20.573Z,99676.19
2022-10-17T06:16:50.486Z,99677.97
2022-10-17T06:19:17.351Z,99679.75
2022-10-17T06:21:45.632Z,99679.59
2022-10-17T06:24:14.899Z,99687.09
2022-10-17T06:26:42.994Z,99685.22
2022-10-17T06:29:12.290Z,99682.41
2022-10-17T06:31:46.357Z,99690.97
2022-10-17T06:34:13.414Z,99688.53
2022-10-17T06:36:40.754Z,99690.91
2022-10-17T06:39:09.046Z,99690.59
2022-10-17T06:41:44.550Z,99683.78
2022-10-17T06:44:12.179Z,99685.44
2022-10-17T06:46:51.153Z,99693.94
2022-10-17T06:49:18.594Z,99691.28
2022-10-17T06:52:11.424Z,99715.13
2022-10-17T06:54:46.910Z,99710.56
2022-10-17T06:57:40.473Z,99707.00
2022-10-17T07:00:26.865Z,99707.31
2022-10-17T07:02:56.185Z,99712.38
2022-10-17T07:05:23.272Z,99713.28
2022-10-17T07:07:51.071Z,99714.41
2022-10-17T07:10:18.755Z,99693.13
2022-10-17T07:12:45.903Z,99713.69
2022-10-17T07:15:13.332Z,99709.19
2022-10-17T07:17:40.047Z,99711.56
2022-10-17T07:20:07.385Z,99718.47
2022-10-17T07:22:36.399Z,99722.56
2022-10-17T07:25:03.942Z,99730.06
2022-10-17T07:27:36.495Z,99723.00
2022-10-17T07:30:04.731Z,99726.88
2022-10-17T07:32:39.669Z,99726.13
2022-10-17T07:35:09.457Z,99729.44
2022-10-17T07:37:36.913Z,99727.56
2022-10-17T07:40:04.591Z,99723.28
2022-10-17T07:42:31.285Z,99728.03
2022-10-17T07:44:59.124Z,99725.16
2022-10-17T07:47:28.025Z,99741.09
2022-10-17T07:49:54.966Z,99734.81
2022-10-17T07:52:21.567Z,99739.09
2022-10-17T07:54:48.171Z,99733.66
2022-10-17T07:57:14.799Z,99736.19
2022-10-17T07:59:41.842Z,99728.50
2022-10-17T08:02:19.745Z,99734.09
2022-10-17T08:04:46.367Z,99739.97
2022-10-17T08:07:20.939Z,99736.94
2022-10-17T08:09:50.996Z,99733.69
2022-10-17T08:12:17.778Z,99742.03
2022-10-17T08:14:44.476Z,99743.78
2022-10-17T08:17:11.045Z,99739.34
2022-10-17T08:19:41.014Z,99744.38
2022-10-17T08:22:08.250Z,99736.53
2022-10-17T08:24:35.339Z,99740.72
2022-10-17T08:27:02.463Z,99739.47
2022-10-17T08:29:29.320Z,99740.06
2022-10-17T08:32:00.909Z,99734.72
2022-10-17T08:34:28.713Z,99721.13
2022-10-17T08:36:55.339Z,99730.84
2022-10-17T08:39:22.213Z,99734.03
2022-10-17T08:41:58.789Z,99734.13
2022-10-17T08:44:58.590Z,99728.94
2022-10-17T08:47:38.878Z,99731.34
2022-10-17T08:50:11.824Z,99724.44
2022-10-17T08:53:14.631Z,99728.50
2022-10-17T08:55:46.267Z,99724.09
2022-10-17T08:58:24.198Z,99721.31
2022-10-17T09:00:55.084Z,99721.16
2022-10-17T09:03:40.735Z,99724.75
2022-10-17T09:06:30.110Z,99726.22
2022-10-17T09:09:09.646Z,99718.44
2022-10-17T09:11:54.373Z,99719.75
2022-10-17T09:14:48.139Z,99720.22
2022-10-17T09:17:44.699Z,99715.91
2022-10-17T09:20:30.046Z,99722.13
2022-10-17T09:23:11.185Z,99713.91
2022-10-17T09:25:50.515Z,99715.38
2022-10-17T09:28:23.729Z,99708.16
2022-10-17T09:30:58.921Z,99716.03
2022-10-17T09:33:53.764Z,99715.84
2022-10-17T09:36:24.607Z,99714.47
2022-10-17T09:38:57.360Z,99718.84
2022-10-17T09:41:50.250Z,99714.88
2022-10-17T09:44:23.526Z,99713.19
2022-10-17T09:47:14.416Z,99722.16
2022-10-17T09:49:44.031Z,99717.31
2022-10-17T09:52:15.283Z,99720.31
2022-10-17T09:54:49.557Z,99715.94
2022-10-17T09:57:17.864Z,99707.97
2022-10-17T09:59:48.107Z,99713.31
2022-10-17T10:02:16.627Z,99715.53
2022-10-17T10:05:03.825Z,99718.28
2022-10-17T10:07:40.439Z,99716.22
2022-10-17T10:10:08.414Z,99712.84
2022-10-17T10:12:38.304Z,99704.03
2022-10-17T10:15:33.838Z,99709.63
2022-10-17T10:18:00.592Z,99713.00
2022-10-17T10:20:37.721Z,99706.13
2022-10-17T10:23:05.485Z,99710.22
2022-10-17T10:25:32.520Z,99708.06
2022-10-17T10:28:00.812Z,99707.22
2022-10-17T10:30:33.821Z,99711.78
2022-10-17T10:33:04.164Z,99710.66
2022-10-17T10:35:36.390Z,99716.47
2022-10-17T10:38:10.888Z,99721.06
2022-10-17T10:40:54.102Z,99707.66
2022-10-17T10:43:43.202Z,99716.50
2022-10-17T10:46:22.575Z,99710.59
2022-10-17T10:48:58.558Z,99703.34
2022-10-17T10:51:39.966Z,99703.66
2022-10-17T10:54:06.906Z,99712.06
2022-10-17T10:56:38.970Z,99699.81
2022-10-17T10:59:08.445Z,99701.44
2022-10-17T11:01:54.216Z,99700.00
2022-10-17T11:04:39.590Z,99704.16
2022-10-17T11:07:28.847Z,99702.72
2022-10-17T11:10:03.152Z,99699.91
2022-10-17T11:12:41.985Z,99702.91
2022-10-17T11:15:33.594Z,99694.78
2022-10-17T11:18:06.243Z,99683.16
2022-10-17T11:20:58.128Z,99682.41
2022-10-17T11:23:34.270Z,99688.31
2022-10-17T11:26:06.542Z,99679.66
2022-10-17T11:28:33.261Z,99675.50
2022-10-17T11:31:16.265Z,99680.16
2022-10-17T11:33:52.581Z,99674.00
2022-10-17T11:36:24.180Z,99670.78
2022-10-17T11:39:02.603Z,99662.25
2022-10-17T11:41:43.961Z,99666.09
2022-10-17T11:44:35.336Z,99667.81
2022-10-17T11:47:05.822Z,99655.16
2022-10-17T11:49:39.966Z,99658.88
2022-10-17T11:53:02.735Z,99656.81
2022-10-17T11:55:31.393Z,99660.81
2022-10-17T11:58:25.245Z,99641.41
2022-10-17T12:01:01.438Z,99643.06
2022-10-17T12:03:52.541Z,99645.50
2022-10-17T12:06:29.443Z,99648.72
2022-10-17T12:08:59.267Z,99645.59
2022-10-17T12:11:56.895Z,99648.59
2022-10-17T12:14:46.737Z,99637.25
2022-10-17T12:17:22.335Z,99633.47
2022-10-17T12:19:49.215Z,99628.03
2022-10-17T12:22:23.346Z,99636.22
2022-10-17T12:25:02.153Z,99634.81
2022-10-17T12:27:37.177Z,99622.84
2022-10-17T12:30:13.632Z,99623.69
2022-10-17T12:33:12.600Z,99624.25
2022-10-17T12:35:39.739Z,99625.00
2022-10-17T12:38:24.042Z,99625.00
2022-10-17T12:40:55.469Z,99613.84
2022-10-17T12:43:28.085Z,99615.88
2022-10-17T12:45:59.443Z,99615.00
2022-10-17T12:48:38.674Z,99612.41
2022-10-17T12:54:08.599Z,99608.97
2022-10-17T12:56:45.906Z,99610.53
2022-10-17T12:59:24.313Z,99606.25
2022-10-17T13:01:58.763Z,99599.03
2022-10-17T13:04:28.459Z,99609.69
2022-10-17T13:06:59.256Z,99593.31
2022-10-17T13:09:28.335Z,99600.09
2022-10-17T13:11:57.481Z,99603.03
2022-10-17T13:14:25.944Z,99603.28
2022-10-17T13:17:00.815Z,99599.84
2022-10-17T13:19:39.133Z,99595.91
2022-10-17T13:22:25.359Z,99603.75
2022-10-17T13:24:53.967Z,99602.09
2022-10-17T13:27:30.284Z,99604.00
2022-10-17T13:30:00.662Z,99604.44
2022-10-17T13:32:36.666Z,99596.50
2022-10-17T13:35:08.500Z,99598.03
2022-10-17T13:37:36.064Z,99592.81
2022-10-17T13:40:17.502Z,99596.72
2022-10-17T13:42:52.570Z,99597.22
2022-10-17T13:45:28.443Z,99592.81
2022-10-17T13:47:55.897Z,99592.25
2022-10-17T13:50:44.010Z,99580.25
2022-10-17T13:53:30.144Z,99590.19
2022-10-17T13:56:30.244Z,99589.94
2022-10-17T13:59:03.520Z,99590.06
2022-10-17T14:01:31.077Z,99594.00
2022-10-17T14:04:19.511Z,99595.78
2022-10-17T14:06:49.707Z,99591.06
2022-10-17T14:09:25.505Z,99593.44
2022-10-17T14:12:02.901Z,99592.25
2022-10-17T14:14:32.234Z,99590.22
2022-10-17T14:17:13.896Z,99582.78
2022-10-17T14:19:40.865Z,99581.59
2022-10-17T14:22:22.466Z,99585.63
2022-10-17T14:24:52.048Z,99580.78
2022-10-17T14:27:35.327Z,99580.88
2022-10-17T14:30:05.496Z,99583.47
2022-10-17T14:32:34.972Z,99582.78
2022-10-17T14:35:30.642Z,99586.09
2022-10-17T14:37:54.006Z,99581.72
2022-10-17T14:40:23.622Z,99584.22
2022-10-17T14:42:55.975Z,99575.56
2022-10-17T14:45:25.974Z,99585.38
2022-10-17T14:47:55.098Z,99584.31
2022-10-17T14:50:25.500Z,99584.91
2022-10-17T14:53:07.270Z,99577.44
2022-10-17T14:55:35.835Z,99570.22
2022-10-17T14:58:16.076Z,99579.53
2022-10-17T15:00:42.798Z,99563.09
2022-10-17T15:03:09.419Z,99579.22
2022-10-17T15:05:36.178Z,99576.00
2022-10-17T15:08:02.868Z,99577.69
2022-10-17T15:10:35.137Z,99580.28
2022-10-17T15:13:27.107Z,99570.22
2022-10-17T15:15:51.941Z,99580.16
2022-10-17T15:18:19.038Z,99580.16
2022-10-17T15:20:45.687Z,99580.66
2022-10-17T15:23:12.201Z,99588.69
2022-10-17T15:25:39.094Z,99578.16
2022-10-17T15:28:05.693Z,99592.41
2022-10-17T15:30:36.394Z,99590.34
2022-10-17T15:33:03.522Z,99590.47
2022-10-17T15:35:30.596Z,99589.97
2022-10-17T15:37:57.422Z,99588.91
2022-10-17T15:40:28.502Z,99588.34
2022-10-17T15:42:56.369Z,99585.00
2022-10-17T15:45:23.696Z,99585.47
2022-10-17T15:47:56.196Z,99592.47
2022-10-17T15:50:22.882Z,99593.38
2022-10-17T15:52:53.147Z,99588.41
2022-10-17T15:55:20.435Z,99590.97
2022-10-17T15:57:48.944Z,99591.66
2022-10-17T16:00:17.053Z,99602.53
2022-10-17T16:02:43.969Z,99596.00
2022-10-17T16:05:16.081Z,99594.69
2022-10-17T16:07:46.540Z,99590.63
2022-10-17T16:10:14.265Z,99592.84
2022-10-17T16:12:43.860Z,99596.50
2022-10-17T16:15:16.151Z,99601.22
2022-10-17T16:17:43.848Z,99602.72
2022-10-17T16:20:12.053Z,99607.09
2022-10-17T16:22:40.667Z,99608.25
2022-10-17T16:25:19.595Z,99614.72
2022-10-17T16:27:48.848Z,99604.66
2022-10-17T16:30:16.059Z,99609.97
2022-10-17T16:32:42.937Z,99616.94
2022-10-17T16:35:11.960Z,99625.91
2022-10-17T16:37:38.553Z,99620.91
2022-10-17T16:40:05.625Z,99616.94
2022-10-17T16:42:32.737Z,99629.22
2022-10-17T16:44:59.630Z,99627.38
2022-10-17T16:47:26.217Z,99625.22
2022-10-17T16:49:52.838Z,99620.63
2022-10-17T16:52:19.558Z,99637.81
2022-10-17T16:54:46.150Z,99631.16
2022-10-17T16:57:12.874Z,99642.69
2022-10-17T16:59:39.543Z,99628.56
2022-10-17T17:02:06.780Z,99638.66
2022-10-17T17:04:33.451Z,99636.56
2022-10-17T17:07:00.042Z,99640.09
2022-10-17T17:09:26.640Z,99644.25
2022-10-17T17:11:53.285Z,99643.44
2022-10-17T17:14:19.847Z,99641.78
2022-10-17T17:16:46.471Z,99647.09
2022-10-17T17:19:15.239Z,99651.03
2022-10-17T17:21:47.581Z,99647.19
2022-10-17T17:24:14.293Z,99651.84
2022-10-17T17:26:41.603Z,99658.72
2022-10-17T17:29:09.227Z,99658.41
2022-10-17T17:31:36.105Z,99658.72
2022-10-17T17:34:03.236Z,99666.72
2022-10-17T17:36:33.357Z,99665.78
2022-10-17T17:39:01.570Z,99670.38
2022-10-17T17:41:28.716Z,99673.78
2022-10-17T17:43:56.314Z,99666.84
2022-10-17T17:46:24.567Z,99671.50
2022-10-17T17:48:52.949Z,99672.97
2022-10-17T17:51:28.313Z,99683.56
2022-10-17T17:53:56.396Z,99678.56
2022-10-17T17:56:28.879Z,99682.53
2022-10-17T17:59:00.739Z,99689.91
2022-10-17T18:01:30.458Z,99691.97
2022-10-17T18:04:01.204Z,99694.03
2022-10-17T18:06:28.633Z,99702.34
2022-10-17T18:08:58.593Z,99701.63
2022-10-17T18:11:27.231Z,99706.19
2022-10-17T18:13:55.837Z,99705.56
2022-10-17T18:16:22.518Z,99700.56
2022-10-17T18:18:49.460Z,99706.97
2022-10-17T18:21:16.471Z,99695.72
2022-10-17T18:23:45.315Z,99706.22
2022-10-17T18:26:13.101Z,99708.72
2022-10-17T18:31:09.700Z,99716.25
2022-10-17T18:33:36.885Z,99719.72
2022-10-17T18:36:07.176Z,99718.34
2022-10-17T18:38:34.157Z,99714.19
2022-10-17T18:41:30.657Z,99714.38
2022-10-17T18:43:57.923Z,99719.16
2022-10-17T18:46:27.699Z,99723.63
2022-10-17T18:48:54.922Z,99728.28
2022-10-17T18:51:23.436Z,99725.03
2022-10-17T18:53:53.049Z,99730.13
2022-10-17T18:56:20.903Z,99725.88
2022-10-17T18:58:47.746Z,99726.72
2022-10-17T19:01:17.516Z,99716.22
2022-10-17T19:03:46.167Z,99733.47
2022-10-17T19:06:15.274Z,99725.13
2022-10-17T19:08:43.408Z,99727.81
2022-10-17T19:11:15.516Z,99728.03
2022-10-17T19:13:43.121Z,99720.34
2022-10-17T19:16:14.067Z,99724.78
2022-10-17T19:18:43.551Z,99727.22
2022-10-17T19:21:11.400Z,99733.88
2022-10-17T19:23:38.478Z,99728.16
2022-10-17T19:26:07.834Z,99721.59
2022-10-17T19:28:36.016Z,99720.47
2022-10-17T19:31:02.758Z,99723.78
2022-10-17T19:33:31.178Z,99721.19
2022-10-17T19:36:00.083Z,99726.09
2022-10-17T19:38:27.203Z,99720.28
2022-10-17T19:40:53.891Z,99726.69
2022-10-17T19:43:21.444Z,99719.25
2022-10-17T19:46:00.197Z,99716.88
2022-10-17T19:48:28.169Z,99722.72
2022-10-17T19:50:54.726Z,99712.34
2022-10-17T19:53:23.548Z,99714.84
2022-10-17T19:55:51.037Z,99710.66
2022-10-17T19:58:17.672Z,99712.84
2022-10-17T20:00:48.706Z,99707.25
2022-10-17T20:03:15.640Z,99715.94
2022-10-17T20:05:42.201Z,99716.16
2022-10-17T20:08:09.024Z,99715.22
2022-10-17T20:10:35.715Z,99719.75
2022-10-17T20:13:02.972Z,99726.44
2022-10-17T20:15:29.810Z,99725.97
2022-10-17T20:17:57.275Z,99724.41
2022-10-17T20:20:24.876Z,99723.84
2022-10-17T20:22:51.544Z,99729.88
2022-10-17T20:25:18.145Z,99722.28
2022-10-17T20:27:45.072Z,99732.94
2022-10-17T20:30:12.408Z,99730.44
2022-10-17T20:32:39.761Z,99736.47
2022-10-17T20:35:07.668Z,99733.69
2022-10-17T20:37:41.464Z,99740.44
2022-10-17T20:40:33.721Z,99722.75
2022-10-17T20:42:57.201Z,99740.69
2022-10-17T20:45:37.537Z,99737.97
2022-10-17T20:48:15.591Z,99734.19
2022-10-17T20:50:43.612Z,99741.66
2022-10-17T20:53:35.329Z,99734.47
2022-10-17T20:56:07.174Z,99734.66
2022-10-17T20:58:34.289Z,99737.78
2022-10-17T21:01:08.909Z,99733.06
2022-10-17T21:03:42.540Z,99729.00
2022-10-17T21:06:13.556Z,99733.94
2022-10-17T21:08:40.297Z,99733.84
2022-10-17T21:11:14.818Z,99724.94
2022-10-17T21:13:41.898Z,99729.88
2022-10-17T21:16:13.780Z,99734.22
2022-10-17T21:18:41.190Z,99728.13
2022-10-17T21:21:16.839Z,99734.56
2022-10-17T21:23:47.466Z,99738.84
2022-10-17T21:26:14.970Z,99729.84
2022-10-17T21:28:42.719Z,99738.06
2022-10-17T21:31:23.642Z,99729.66
2022-10-17T21:33:53.343Z,99732.44
2022-10-17T21:36:20.657Z,99736.69
2022-10-17T21:38:50.013Z,99724.81
2022-10-17T21:41:22.237Z,99735.19
2022-10-17T21:43:53.093Z,99732.53
2022-10-17T21:46:20.305Z,99741.31
2022-10-17T21:48:48.304Z,99741.22
2022-10-17T21:51:17.492Z,99734.84
2022-10-17T21:53:44.484Z,99739.34
2022-10-17T21:56:23.212Z,99732.88
2022-10-17T21:58:51.697Z,99727.59
2022-10-17T22:01:32.776Z,99721.59
2022-10-17T22:04:02.314Z,99730.09
2022-10-17T22:06:40.594Z,99726.66
2022-10-17T22:09:13.686Z,99721.59
2022-10-17T22:11:40.813Z,99726.19
2022-10-17T22:14:11.974Z,99718.13
2022-10-17T22:16:38.784Z,99718.03
2022-10-17T22:19:06.991Z,99722.38
2022-10-17T22:21:35.661Z,99715.34
2022-10-17T22:24:05.249Z,99725.25
2022-10-17T22:26:34.998Z,99721.72
2022-10-17T22:29:02.096Z,99730.25
2022-10-17T22:31:28.812Z,99720.50
2022-10-17T22:33:55.796Z,99724.44
2022-10-17T22:36:22.534Z,99721.88
2022-10-17T22:38:49.172Z,99728.53
2022-10-17T22:41:15.793Z,99722.16
2022-10-17T22:43:42.588Z,99722.69
2022-10-17T22:46:13.006Z,99722.78
2022-10-17T22:48:39.783Z,99720.09
2022-10-17T22:51:06.413Z,99716.88
2022-10-17T22:53:35.015Z,99717.78
2022-10-17T22:56:13.037Z,99718.44
2022-10-17T22:58:40.056Z,99712.22
2022-10-17T23:01:08.098Z,99727.63
2022-10-17T23:03:35.782Z,99725.28
2022-10-17T23:06:03.028Z,99721.56
2022-10-17T23:08:30.488Z,99713.97
2022-10-17T23:10:57.115Z,99716.38
2022-10-17T23:13:23.806Z,99710.09
2022-10-17T23:15:55.434Z,99711.94
2022-10-17T23:18:23.422Z,99711.94
2022-10-17T23:20:50.787Z,99713.06
2022-10-17T23:23:17.676Z,99713.13
2022-10-17T23:25:44.975Z,99706.28
2022-10-17T23:28:11.614Z,99706.84
2022-10-17T23:30:39.487Z,99712.09
2022-10-17T23:33:07.038Z,99721.72
2022-10-17T23:35:34.232Z,99712.28
2022-10-17T23:38:00.851Z,99713.38
2022-10-17T23:40:28.033Z,99716.06
2022-10-17T23:42:54.741Z,99708.47
2022-10-17T23:45:21.691Z,99717.81
2022-10-17T23:47:48.450Z,99720.50
2022-10-17T23:50:15.108Z,99716.50
2022-10-17T23:52:41.791Z,99710.72
2022-10-17T23:55:09.207Z,99712.50
2022-10-17T23:57:35.774Z,99715.00
